首页
METAR-TAF:

METAR-TAF

机场 :

聖迪濟耶, 法国

纬度: 48-38N, 经度: 004-54E, 海拔: 139米

当前天气观测

该预报发布于28分钟前的19:30 UTC
风速4节,风向南转西南
温度 5°C
湿度 75%
气压 1031 hPa
能见度10公里或以上
1500米以下无云,无积雨云

METAR: LFSI 211930Z AUTO 21004KT CAVOK 05/01 Q1031

时间: 20:58 (19:58 UTC)

预报

该预报发布于5小时和57分钟前的14:01 UTC
预报有效从21日的 15点(UTC)到 22日的 15点(UTC)
风速10节,风向西转西南
能见度10公里或以上
散云层高于3000英尺

TAF: LFSI 211401Z 2115/2215 24010KT 9999 SCT030

超过4000个机场的气象观测和天气预报(METAR&TAF报告)。

可查询的气象台以黄色和红色小点在地图上表示。

将鼠标移到小点上方,可查看气象台名称。

然后点击查看天气观测和预报。

如需切换地图:点击带黑十字的绿色按钮放大地图;点击带横线的绿色按钮缩小地图;或者点击绿色箭头查看邻近地区的地图。


METAR-TAF: